sensor_id;sensor_type;location;lat;lon;timestamp;P1;durP1;ratioP1;P2;durP2;ratioP2
28086;SDS011;15392;48.912;8.380;2023-10-31T00:00:44;0.10;;;0.10;;
28086;SDS011;15392;48.912;8.380;2023-10-31T00:03:31;0.20;;;0.10;;
28086;SDS011;15392;48.912;8.380;2023-10-31T00:06:17;0.10;;;0.10;;
28086;SDS011;15392;48.912;8.380;2023-10-31T00:09:03;0.10;;;0.10;;
28086;SDS011;15392;48.912;8.380;2023-10-31T00:11:49;0.10;;;0.10;;
28086;SDS011;15392;48.912;8.380;2023-10-31T00:14:35;0.20;;;0.20;;
28086;SDS011;15392;48.912;8.380;2023-10-31T00:17:21;0.00;;;0.00;;
28086;SDS011;15392;48.912;8.380;2023-10-31T00:20:07;0.00;;;0.00;;
28086;SDS011;15392;48.912;8.380;2023-10-31T00:22:53;0.10;;;0.10;;
28086;SDS011;15392;48.912;8.380;2023-10-31T00:25:39;0.55;;;0.20;;
28086;SDS011;15392;48.912;8.380;2023-10-31T00:28:25;0.10;;;0.10;;
28086;SDS011;15392;48.912;8.380;2023-10-31T00:31:11;0.10;;;0.10;;
28086;SDS011;15392;48.912;8.380;2023-10-31T00:33:58;0.15;;;0.10;;
28086;SDS011;15392;48.912;8.380;2023-10-31T00:36:44;0.03;;;0.03;;
28086;SDS011;15392;48.912;8.380;2023-10-31T00:39:30;0.00;;;0.00;;
28086;SDS011;15392;48.912;8.380;2023-10-31T00:42:16;0.10;;;0.10;;
28086;SDS011;15392;48.912;8.380;2023-10-31T00:45:02;0.03;;;0.03;;
28086;SDS011;15392;48.912;8.380;2023-10-31T00:47:49;0.73;;;0.10;;
28086;SDS011;15392;48.912;8.380;2023-10-31T00:50:35;0.10;;;0.10;;
28086;SDS011;15392;48.912;8.380;2023-10-31T00:53:21;0.10;;;0.10;;
28086;SDS011;15392;48.912;8.380;2023-10-31T00:56:07;0.10;;;0.10;;
28086;SDS011;15392;48.912;8.380;2023-10-31T00:58:53;0.10;;;0.10;;
28086;SDS011;15392;48.912;8.380;2023-10-31T01:01:39;0.20;;;0.20;;
28086;SDS011;15392;48.912;8.380;2023-10-31T01:04:25;0.10;;;0.10;;
28086;SDS011;15392;48.912;8.380;2023-10-31T01:07:11;0.10;;;0.10;;
28086;SDS011;15392;48.912;8.380;2023-10-31T01:09:59;0.55;;;0.10;;
28086;SDS011;15392;48.912;8.380;2023-10-31T01:12:46;0.08;;;0.08;;
28086;SDS011;15392;48.912;8.380;2023-10-31T01:15:32;0.10;;;0.00;;
28086;SDS011;15392;48.912;8.380;2023-10-31T01:18:18;0.10;;;0.10;;
28086;SDS011;15392;48.912;8.380;2023-10-31T01:21:04;0.00;;;0.00;;
28086;SDS011;15392;48.912;8.380;2023-10-31T01:23:50;0.10;;;0.10;;
28086;SDS011;15392;48.912;8.380;2023-10-31T01:26:36;0.20;;;0.10;;
28086;SDS011;15392;48.912;8.380;2023-10-31T01:29:22;0.10;;;0.10;;
28086;SDS011;15392;48.912;8.380;2023-10-31T01:32:08;0.20;;;0.20;;
28086;SDS011;15392;48.912;8.380;2023-10-31T01:34:54;0.00;;;0.00;;
28086;SDS011;15392;48.912;8.380;2023-10-31T01:37:40;0.00;;;0.00;;
28086;SDS011;15392;48.912;8.380;2023-10-31T01:40:26;0.03;;;0.03;;
28086;SDS011;15392;48.912;8.380;2023-10-31T01:43:12;0.00;;;0.00;;
28086;SDS011;15392;48.912;8.380;2023-10-31T01:45:58;0.10;;;0.10;;
28086;SDS011;15392;48.912;8.380;2023-10-31T01:48:44;0.10;;;0.10;;
28086;SDS011;15392;48.912;8.380;2023-10-31T01:51:31;0.10;;;0.10;;
28086;SDS011;15392;48.912;8.380;2023-10-31T01:54:17;0.15;;;0.15;;
28086;SDS011;15392;48.912;8.380;2023-10-31T01:57:03;0.20;;;0.20;;
28086;SDS011;15392;48.912;8.380;2023-10-31T01:59:51;0.30;;;0.10;;
28086;SDS011;15392;48.912;8.380;2023-10-31T02:02:37;0.05;;;0.05;;
28086;SDS011;15392;48.912;8.380;2023-10-31T02:05:26;0.60;;;0.10;;
28086;SDS011;15392;48.912;8.380;2023-10-31T02:08:14;0.10;;;0.10;;
28086;SDS011;15392;48.912;8.380;2023-10-31T02:11:00;0.13;;;0.13;;
28086;SDS011;15392;48.912;8.380;2023-10-31T02:13:46;0.20;;;0.20;;
28086;SDS011;15392;48.912;8.380;2023-10-31T02:16:32;0.13;;;0.13;;
28086;SDS011;15392;48.912;8.380;2023-10-31T02:19:19;0.30;;;0.30;;
28086;SDS011;15392;48.912;8.380;2023-10-31T02:22:06;0.20;;;0.20;;
28086;SDS011;15392;48.912;8.380;2023-10-31T02:24:52;0.13;;;0.13;;
28086;SDS011;15392;48.912;8.380;2023-10-31T02:27:38;0.30;;;0.30;;
28086;SDS011;15392;48.912;8.380;2023-10-31T02:30:24;0.30;;;0.30;;
28086;SDS011;15392;48.912;8.380;2023-10-31T02:33:10;0.10;;;0.10;;
28086;SDS011;15392;48.912;8.380;2023-10-31T02:35:56;1.23;;;0.10;;
28086;SDS011;15392;48.912;8.380;2023-10-31T02:38:42;0.00;;;0.00;;
28086;SDS011;15392;48.912;8.380;2023-10-31T02:41:28;0.13;;;0.13;;
28086;SDS011;15392;48.912;8.380;2023-10-31T02:44:15;0.10;;;0.10;;
28086;SDS011;15392;48.912;8.380;2023-10-31T02:47:01;0.10;;;0.10;;
28086;SDS011;15392;48.912;8.380;2023-10-31T02:49:47;0.10;;;0.10;;
28086;SDS011;15392;48.912;8.380;2023-10-31T02:52:33;0.10;;;0.10;;
28086;SDS011;15392;48.912;8.380;2023-10-31T02:55:19;0.10;;;0.10;;
28086;SDS011;15392;48.912;8.380;2023-10-31T02:58:05;0.10;;;0.10;;
28086;SDS011;15392;48.912;8.380;2023-10-31T03:00:51;0.22;;;0.22;;
28086;SDS011;15392;48.912;8.380;2023-10-31T03:03:37;0.15;;;0.10;;
28086;SDS011;15392;48.912;8.380;2023-10-31T03:06:23;0.15;;;0.15;;
28086;SDS011;15392;48.912;8.380;2023-10-31T03:09:09;0.20;;;0.15;;
28086;SDS011;15392;48.912;8.380;2023-10-31T03:11:55;0.10;;;0.10;;
28086;SDS011;15392;48.912;8.380;2023-10-31T03:14:41;0.50;;;0.20;;
28086;SDS011;15392;48.912;8.380;2023-10-31T03:17:27;0.20;;;0.17;;
28086;SDS011;15392;48.912;8.380;2023-10-31T03:20:13;0.10;;;0.10;;
28086;SDS011;15392;48.912;8.380;2023-10-31T03:22:59;0.10;;;0.10;;
28086;SDS011;15392;48.912;8.380;2023-10-31T03:25:45;0.10;;;0.10;;
28086;SDS011;15392;48.912;8.380;2023-10-31T03:28:31;0.03;;;0.03;;
28086;SDS011;15392;48.912;8.380;2023-10-31T03:31:17;0.10;;;0.10;;
28086;SDS011;15392;48.912;8.380;2023-10-31T03:34:03;0.20;;;0.20;;
28086;SDS011;15392;48.912;8.380;2023-10-31T03:36:49;0.20;;;0.10;;
28086;SDS011;15392;48.912;8.380;2023-10-31T03:39:35;0.10;;;0.10;;
28086;SDS011;15392;48.912;8.380;2023-10-31T03:42:21;0.20;;;0.20;;
28086;SDS011;15392;48.912;8.380;2023-10-31T03:45:07;0.10;;;0.10;;
28086;SDS011;15392;48.912;8.380;2023-10-31T03:47:54;0.10;;;0.10;;
28086;SDS011;15392;48.912;8.380;2023-10-31T03:50:40;0.20;;;0.20;;
28086;SDS011;15392;48.912;8.380;2023-10-31T03:53:26;0.15;;;0.15;;
28086;SDS011;15392;48.912;8.380;2023-10-31T03:56:12;0.15;;;0.15;;
28086;SDS011;15392;48.912;8.380;2023-10-31T03:58:59;0.10;;;0.10;;
28086;SDS011;15392;48.912;8.380;2023-10-31T04:01:44;0.20;;;0.10;;
28086;SDS011;15392;48.912;8.380;2023-10-31T04:04:31;0.20;;;0.20;;
28086;SDS011;15392;48.912;8.380;2023-10-31T04:07:17;0.20;;;0.20;;
28086;SDS011;15392;48.912;8.380;2023-10-31T04:10:03;0.20;;;0.20;;
28086;SDS011;15392;48.912;8.380;2023-10-31T04:12:49;0.13;;;0.10;;
28086;SDS011;15392;48.912;8.380;2023-10-31T04:15:35;0.10;;;0.10;;
28086;SDS011;15392;48.912;8.380;2023-10-31T04:18:22;0.20;;;0.10;;
28086;SDS011;15392;48.912;8.380;2023-10-31T04:21:08;0.20;;;0.20;;
28086;SDS011;15392;48.912;8.380;2023-10-31T04:23:54;0.10;;;0.10;;
28086;SDS011;15392;48.912;8.380;2023-10-31T04:26:40;0.15;;;0.10;;
28086;SDS011;15392;48.912;8.380;2023-10-31T04:29:26;0.20;;;0.10;;
28086;SDS011;15392;48.912;8.380;2023-10-31T04:32:12;0.10;;;0.10;;
28086;SDS011;15392;48.912;8.380;2023-10-31T04:34:58;0.00;;;0.00;;
28086;SDS011;15392;48.912;8.380;2023-10-31T04:37:44;0.08;;;0.08;;
28086;SDS011;15392;48.912;8.380;2023-10-31T04:40:30;0.00;;;0.00;;
28086;SDS011;15392;48.912;8.380;2023-10-31T04:43:16;0.13;;;0.13;;
28086;SDS011;15392;48.912;8.380;2023-10-31T04:46:02;0.10;;;0.10;;
28086;SDS011;15392;48.912;8.380;2023-10-31T04:48:48;0.10;;;0.05;;
28086;SDS011;15392;48.912;8.380;2023-10-31T04:51:35;0.10;;;0.10;;
28086;SDS011;15392;48.912;8.380;2023-10-31T04:54:22;0.08;;;0.08;;
28086;SDS011;15392;48.912;8.380;2023-10-31T04:57:08;0.10;;;0.10;;
28086;SDS011;15392;48.912;8.380;2023-10-31T04:59:54;0.10;;;0.10;;
28086;SDS011;15392;48.912;8.380;2023-10-31T05:02:42;0.00;;;0.00;;
28086;SDS011;15392;48.912;8.380;2023-10-31T05:05:28;0.00;;;0.00;;
28086;SDS011;15392;48.912;8.380;2023-10-31T05:08:14;0.00;;;0.00;;
28086;SDS011;15392;48.912;8.380;2023-10-31T05:11:00;0.10;;;0.10;;
28086;SDS011;15392;48.912;8.380;2023-10-31T05:13:46;0.10;;;0.10;;
28086;SDS011;15392;48.912;8.380;2023-10-31T05:16:38;0.10;;;0.10;;
28086;SDS011;15392;48.912;8.380;2023-10-31T05:19:26;0.00;;;0.00;;
28086;SDS011;15392;48.912;8.380;2023-10-31T05:22:12;0.10;;;0.10;;
28086;SDS011;15392;48.912;8.380;2023-10-31T05:24:58;0.10;;;0.10;;
28086;SDS011;15392;48.912;8.380;2023-10-31T05:27:44;0.15;;;0.10;;
28086;SDS011;15392;48.912;8.380;2023-10-31T05:30:30;0.45;;;0.17;;
28086;SDS011;15392;48.912;8.380;2023-10-31T05:33:16;0.10;;;0.10;;
28086;SDS011;15392;48.912;8.380;2023-10-31T05:36:02;0.00;;;0.00;;
28086;SDS011;15392;48.912;8.380;2023-10-31T05:38:48;0.15;;;0.10;;
28086;SDS011;15392;48.912;8.380;2023-10-31T05:41:34;1.15;;;0.20;;
28086;SDS011;15392;48.912;8.380;2023-10-31T05:44:21;0.82;;;0.10;;
28086;SDS011;15392;48.912;8.380;2023-10-31T05:47:06;0.10;;;0.10;;
28086;SDS011;15392;48.912;8.380;2023-10-31T05:49:53;0.17;;;0.13;;
28086;SDS011;15392;48.912;8.380;2023-10-31T05:52:39;0.15;;;0.10;;
28086;SDS011;15392;48.912;8.380;2023-10-31T05:55:25;0.00;;;0.00;;
28086;SDS011;15392;48.912;8.380;2023-10-31T05:58:11;0.25;;;0.13;;
28086;SDS011;15392;48.912;8.380;2023-10-31T06:00:57;0.10;;;0.10;;
28086;SDS011;15392;48.912;8.380;2023-10-31T06:03:43;0.00;;;0.00;;
28086;SDS011;15392;48.912;8.380;2023-10-31T06:06:32;0.10;;;0.10;;
28086;SDS011;15392;48.912;8.380;2023-10-31T06:09:18;0.25;;;0.10;;
28086;SDS011;15392;48.912;8.380;2023-10-31T06:12:04;0.15;;;0.10;;
28086;SDS011;15392;48.912;8.380;2023-10-31T06:14:51;0.43;;;0.20;;
28086;SDS011;15392;48.912;8.380;2023-10-31T06:17:36;0.10;;;0.10;;
28086;SDS011;15392;48.912;8.380;2023-10-31T06:20:22;0.08;;;0.08;;
28086;SDS011;15392;48.912;8.380;2023-10-31T06:23:09;0.73;;;0.10;;
28086;SDS011;15392;48.912;8.380;2023-10-31T06:25:55;0.20;;;0.20;;
28086;SDS011;15392;48.912;8.380;2023-10-31T06:28:41;0.20;;;0.20;;
28086;SDS011;15392;48.912;8.380;2023-10-31T06:31:27;0.17;;;0.10;;
28086;SDS011;15392;48.912;8.380;2023-10-31T06:34:13;0.38;;;0.10;;
28086;SDS011;15392;48.912;8.380;2023-10-31T06:36:59;0.20;;;0.20;;
28086;SDS011;15392;48.912;8.380;2023-10-31T06:39:45;0.25;;;0.20;;
28086;SDS011;15392;48.912;8.380;2023-10-31T06:42:31;0.10;;;0.10;;
28086;SDS011;15392;48.912;8.380;2023-10-31T06:45:17;0.52;;;0.10;;
28086;SDS011;15392;48.912;8.380;2023-10-31T06:48:03;0.25;;;0.20;;
28086;SDS011;15392;48.912;8.380;2023-10-31T06:50:49;0.20;;;0.20;;
28086;SDS011;15392;48.912;8.380;2023-10-31T06:53:35;0.20;;;0.10;;
28086;SDS011;15392;48.912;8.380;2023-10-31T06:56:21;0.52;;;0.20;;
28086;SDS011;15392;48.912;8.380;2023-10-31T06:59:07;0.38;;;0.38;;
28086;SDS011;15392;48.912;8.380;2023-10-31T07:01:54;0.10;;;0.10;;
28086;SDS011;15392;48.912;8.380;2023-10-31T07:04:40;0.20;;;0.20;;
28086;SDS011;15392;48.912;8.380;2023-10-31T07:07:26;0.10;;;0.10;;
28086;SDS011;15392;48.912;8.380;2023-10-31T07:10:12;0.10;;;0.10;;
28086;SDS011;15392;48.912;8.380;2023-10-31T07:12:58;0.10;;;0.10;;
28086;SDS011;15392;48.912;8.380;2023-10-31T07:15:45;0.20;;;0.17;;
28086;SDS011;15392;48.912;8.380;2023-10-31T07:18:32;0.20;;;0.20;;
28086;SDS011;15392;48.912;8.380;2023-10-31T07:21:18;0.17;;;0.10;;
28086;SDS011;15392;48.912;8.380;2023-10-31T07:24:04;0.10;;;0.10;;
28086;SDS011;15392;48.912;8.380;2023-10-31T07:26:50;0.15;;;0.15;;
28086;SDS011;15392;48.912;8.380;2023-10-31T07:29:39;0.20;;;0.20;;
28086;SDS011;15392;48.912;8.380;2023-10-31T07:32:26;0.25;;;0.25;;
28086;SDS011;15392;48.912;8.380;2023-10-31T07:35:12;0.30;;;0.10;;
28086;SDS011;15392;48.912;8.380;2023-10-31T07:37:58;0.20;;;0.20;;
28086;SDS011;15392;48.912;8.380;2023-10-31T07:40:44;0.13;;;0.13;;
28086;SDS011;15392;48.912;8.380;2023-10-31T07:43:30;0.10;;;0.10;;
28086;SDS011;15392;48.912;8.380;2023-10-31T07:46:16;0.10;;;0.10;;
28086;SDS011;15392;48.912;8.380;2023-10-31T07:49:02;0.22;;;0.22;;
28086;SDS011;15392;48.912;8.380;2023-10-31T07:51:48;0.10;;;0.10;;
28086;SDS011;15392;48.912;8.380;2023-10-31T07:54:34;0.20;;;0.20;;
28086;SDS011;15392;48.912;8.380;2023-10-31T07:57:20;0.20;;;0.20;;
28086;SDS011;15392;48.912;8.380;2023-10-31T08:00:10;0.10;;;0.10;;
28086;SDS011;15392;48.912;8.380;2023-10-31T08:02:57;0.10;;;0.10;;
28086;SDS011;15392;48.912;8.380;2023-10-31T08:05:43;0.20;;;0.20;;
28086;SDS011;15392;48.912;8.380;2023-10-31T08:08:29;0.13;;;0.10;;
28086;SDS011;15392;48.912;8.380;2023-10-31T08:11:15;0.13;;;0.13;;
28086;SDS011;15392;48.912;8.380;2023-10-31T08:14:01;0.75;;;0.20;;
28086;SDS011;15392;48.912;8.380;2023-10-31T08:16:47;0.10;;;0.10;;
28086;SDS011;15392;48.912;8.380;2023-10-31T08:19:33;0.20;;;0.20;;
28086;SDS011;15392;48.912;8.380;2023-10-31T08:22:19;0.10;;;0.10;;
28086;SDS011;15392;48.912;8.380;2023-10-31T08:25:05;0.10;;;0.10;;
28086;SDS011;15392;48.912;8.380;2023-10-31T08:27:52;0.25;;;0.25;;
28086;SDS011;15392;48.912;8.380;2023-10-31T08:30:38;0.17;;;0.17;;
28086;SDS011;15392;48.912;8.380;2023-10-31T08:33:24;0.20;;;0.20;;
28086;SDS011;15392;48.912;8.380;2023-10-31T08:36:10;0.30;;;0.22;;
28086;SDS011;15392;48.912;8.380;2023-10-31T08:38:56;0.10;;;0.10;;
28086;SDS011;15392;48.912;8.380;2023-10-31T08:41:49;1.00;;;0.30;;
28086;SDS011;15392;48.912;8.380;2023-10-31T08:44:40;0.35;;;0.20;;
28086;SDS011;15392;48.912;8.380;2023-10-31T08:47:27;0.35;;;0.30;;
28086;SDS011;15392;48.912;8.380;2023-10-31T08:50:13;0.15;;;0.15;;
28086;SDS011;15392;48.912;8.380;2023-10-31T08:52:59;0.30;;;0.30;;
28086;SDS011;15392;48.912;8.380;2023-10-31T08:55:45;0.30;;;0.30;;
28086;SDS011;15392;48.912;8.380;2023-10-31T08:58:31;0.25;;;0.25;;
28086;SDS011;15392;48.912;8.380;2023-10-31T09:01:17;0.15;;;0.15;;
28086;SDS011;15392;48.912;8.380;2023-10-31T09:04:04;0.93;;;0.32;;
28086;SDS011;15392;48.912;8.380;2023-10-31T09:06:51;0.28;;;0.20;;
28086;SDS011;15392;48.912;8.380;2023-10-31T09:09:37;0.20;;;0.20;;
28086;SDS011;15392;48.912;8.380;2023-10-31T09:12:23;0.25;;;0.25;;
28086;SDS011;15392;48.912;8.380;2023-10-31T09:15:09;0.20;;;0.20;;
28086;SDS011;15392;48.912;8.380;2023-10-31T09:17:55;0.30;;;0.30;;
28086;SDS011;15392;48.912;8.380;2023-10-31T09:20:43;0.20;;;0.20;;
28086;SDS011;15392;48.912;8.380;2023-10-31T09:23:29;0.20;;;0.20;;
28086;SDS011;15392;48.912;8.380;2023-10-31T09:26:15;0.30;;;0.20;;
28086;SDS011;15392;48.912;8.380;2023-10-31T09:29:03;0.20;;;0.20;;
28086;SDS011;15392;48.912;8.380;2023-10-31T09:31:49;0.57;;;0.50;;
28086;SDS011;15392;48.912;8.380;2023-10-31T09:34:35;0.30;;;0.30;;
28086;SDS011;15392;48.912;8.380;2023-10-31T09:37:21;0.32;;;0.30;;
28086;SDS011;15392;48.912;8.380;2023-10-31T09:40:07;0.22;;;0.22;;
28086;SDS011;15392;48.912;8.380;2023-10-31T09:42:54;0.57;;;0.40;;
28086;SDS011;15392;48.912;8.380;2023-10-31T09:45:40;0.63;;;0.30;;
28086;SDS011;15392;48.912;8.380;2023-10-31T09:48:27;0.82;;;0.52;;
28086;SDS011;15392;48.912;8.380;2023-10-31T09:51:13;0.20;;;0.20;;
28086;SDS011;15392;48.912;8.380;2023-10-31T09:54:00;0.25;;;0.20;;
28086;SDS011;15392;48.912;8.380;2023-10-31T09:56:48;0.30;;;0.30;;
28086;SDS011;15392;48.912;8.380;2023-10-31T09:59:34;0.15;;;0.10;;
28086;SDS011;15392;48.912;8.380;2023-10-31T10:02:21;0.40;;;0.30;;
28086;SDS011;15392;48.912;8.380;2023-10-31T10:05:09;0.30;;;0.28;;
28086;SDS011;15392;48.912;8.380;2023-10-31T10:07:56;0.22;;;0.20;;
28086;SDS011;15392;48.912;8.380;2023-10-31T10:10:42;0.30;;;0.30;;
28086;SDS011;15392;48.912;8.380;2023-10-31T10:13:28;0.40;;;0.40;;
28086;SDS011;15392;48.912;8.380;2023-10-31T10:16:27;0.20;;;0.20;;
28086;SDS011;15392;48.912;8.380;2023-10-31T10:22:03;0.30;;;0.30;;
28086;SDS011;15392;48.912;8.380;2023-10-31T10:24:49;0.40;;;0.20;;
28086;SDS011;15392;48.912;8.380;2023-10-31T10:27:35;0.20;;;0.20;;
28086;SDS011;15392;48.912;8.380;2023-10-31T10:30:21;0.20;;;0.20;;
28086;SDS011;15392;48.912;8.380;2023-10-31T10:33:07;0.63;;;0.25;;
28086;SDS011;15392;48.912;8.380;2023-10-31T10:35:54;0.20;;;0.20;;
28086;SDS011;15392;48.912;8.380;2023-10-31T10:38:40;0.20;;;0.20;;
28086;SDS011;15392;48.912;8.380;2023-10-31T10:41:30;0.10;;;0.10;;
28086;SDS011;15392;48.912;8.380;2023-10-31T10:44:43;0.20;;;0.20;;
28086;SDS011;15392;48.912;8.380;2023-10-31T10:47:30;0.20;;;0.20;;
28086;SDS011;15392;48.912;8.380;2023-10-31T10:50:18;0.20;;;0.20;;
28086;SDS011;15392;48.912;8.380;2023-10-31T10:53:24;0.20;;;0.20;;
28086;SDS011;15392;48.912;8.380;2023-10-31T10:56:25;0.10;;;0.10;;
28086;SDS011;15392;48.912;8.380;2023-10-31T10:59:20;0.30;;;0.30;;
28086;SDS011;15392;48.912;8.380;2023-10-31T11:02:07;0.13;;;0.13;;
28086;SDS011;15392;48.912;8.380;2023-10-31T11:04:56;0.20;;;0.20;;
28086;SDS011;15392;48.912;8.380;2023-10-31T11:07:42;0.15;;;0.15;;
28086;SDS011;15392;48.912;8.380;2023-10-31T11:10:28;0.13;;;0.13;;
28086;SDS011;15392;48.912;8.380;2023-10-31T11:13:14;0.20;;;0.20;;
28086;SDS011;15392;48.912;8.380;2023-10-31T11:16:02;0.10;;;0.10;;
28086;SDS011;15392;48.912;8.380;2023-10-31T11:18:56;0.63;;;0.30;;
28086;SDS011;15392;48.912;8.380;2023-10-31T11:21:59;0.25;;;0.22;;
28086;SDS011;15392;48.912;8.380;2023-10-31T11:24:48;0.30;;;0.22;;
28086;SDS011;15392;48.912;8.380;2023-10-31T11:27:35;0.38;;;0.38;;
28086;SDS011;15392;48.912;8.380;2023-10-31T11:30:26;0.38;;;0.38;;
28086;SDS011;15392;48.912;8.380;2023-10-31T11:33:14;0.20;;;0.20;;
28086;SDS011;15392;48.912;8.380;2023-10-31T11:36:05;0.20;;;0.20;;
28086;SDS011;15392;48.912;8.380;2023-10-31T11:38:51;0.20;;;0.20;;
28086;SDS011;15392;48.912;8.380;2023-10-31T11:41:57;0.40;;;0.40;;
28086;SDS011;15392;48.912;8.380;2023-10-31T11:44:54;0.70;;;0.70;;
28086;SDS011;15392;48.912;8.380;2023-10-31T11:47:47;0.45;;;0.45;;
28086;SDS011;15392;48.912;8.380;2023-10-31T11:50:37;0.32;;;0.30;;
28086;SDS011;15392;48.912;8.380;2023-10-31T11:53:24;0.22;;;0.22;;
28086;SDS011;15392;48.912;8.380;2023-10-31T11:56:10;0.22;;;0.20;;
28086;SDS011;15392;48.912;8.380;2023-10-31T11:58:57;0.10;;;0.10;;
28086;SDS011;15392;48.912;8.380;2023-10-31T12:01:46;0.15;;;0.15;;
28086;SDS011;15392;48.912;8.380;2023-10-31T12:04:32;0.10;;;0.10;;
28086;SDS011;15392;48.912;8.380;2023-10-31T12:07:18;0.40;;;0.30;;
28086;SDS011;15392;48.912;8.380;2023-10-31T12:10:05;0.40;;;0.40;;
28086;SDS011;15392;48.912;8.380;2023-10-31T12:12:51;0.10;;;0.10;;
28086;SDS011;15392;48.912;8.380;2023-10-31T12:15:38;0.20;;;0.10;;
28086;SDS011;15392;48.912;8.380;2023-10-31T12:18:38;0.32;;;0.25;;
28086;SDS011;15392;48.912;8.380;2023-10-31T12:24:41;0.30;;;0.30;;
28086;SDS011;15392;48.912;8.380;2023-10-31T12:27:41;0.30;;;0.30;;
28086;SDS011;15392;48.912;8.380;2023-10-31T12:30:43;0.30;;;0.30;;
28086;SDS011;15392;48.912;8.380;2023-10-31T12:33:34;0.15;;;0.15;;
28086;SDS011;15392;48.912;8.380;2023-10-31T12:36:20;0.30;;;0.20;;
28086;SDS011;15392;48.912;8.380;2023-10-31T12:39:08;0.15;;;0.15;;
28086;SDS011;15392;48.912;8.380;2023-10-31T12:41:59;0.10;;;0.10;;
28086;SDS011;15392;48.912;8.380;2023-10-31T12:44:47;0.20;;;0.20;;
28086;SDS011;15392;48.912;8.380;2023-10-31T12:47:33;0.20;;;0.20;;
28086;SDS011;15392;48.912;8.380;2023-10-31T12:50:20;0.22;;;0.22;;
28086;SDS011;15392;48.912;8.380;2023-10-31T12:53:06;0.25;;;0.25;;
28086;SDS011;15392;48.912;8.380;2023-10-31T12:55:52;0.17;;;0.13;;
28086;SDS011;15392;48.912;8.380;2023-10-31T12:58:38;0.10;;;0.10;;
28086;SDS011;15392;48.912;8.380;2023-10-31T13:01:24;0.10;;;0.10;;
28086;SDS011;15392;48.912;8.380;2023-10-31T13:04:10;0.17;;;0.17;;
28086;SDS011;15392;48.912;8.380;2023-10-31T13:09:44;0.15;;;0.10;;
28086;SDS011;15392;48.912;8.380;2023-10-31T13:12:33;0.10;;;0.10;;
28086;SDS011;15392;48.912;8.380;2023-10-31T13:15:19;0.10;;;0.10;;
28086;SDS011;15392;48.912;8.380;2023-10-31T13:18:09;0.35;;;0.10;;
28086;SDS011;15392;48.912;8.380;2023-10-31T13:20:56;0.10;;;0.10;;
28086;SDS011;15392;48.912;8.380;2023-10-31T13:23:42;0.10;;;0.10;;
28086;SDS011;15392;48.912;8.380;2023-10-31T13:26:30;0.35;;;0.10;;
28086;SDS011;15392;48.912;8.380;2023-10-31T13:29:17;0.10;;;0.10;;
28086;SDS011;15392;48.912;8.380;2023-10-31T13:32:04;0.20;;;0.20;;
28086;SDS011;15392;48.912;8.380;2023-10-31T13:34:50;0.10;;;0.10;;
28086;SDS011;15392;48.912;8.380;2023-10-31T13:37:36;0.40;;;0.10;;
28086;SDS011;15392;48.912;8.380;2023-10-31T13:40:22;0.15;;;0.10;;
28086;SDS011;15392;48.912;8.380;2023-10-31T13:43:08;0.30;;;0.15;;
28086;SDS011;15392;48.912;8.380;2023-10-31T13:45:55;0.20;;;0.20;;
28086;SDS011;15392;48.912;8.380;2023-10-31T13:48:41;0.00;;;0.00;;
28086;SDS011;15392;48.912;8.380;2023-10-31T13:51:27;0.10;;;0.10;;
28086;SDS011;15392;48.912;8.380;2023-10-31T13:54:13;0.10;;;0.10;;
28086;SDS011;15392;48.912;8.380;2023-10-31T13:56:59;0.08;;;0.05;;
28086;SDS011;15392;48.912;8.380;2023-10-31T13:59:45;0.10;;;0.10;;
28086;SDS011;15392;48.912;8.380;2023-10-31T14:02:31;0.20;;;0.20;;
28086;SDS011;15392;48.912;8.380;2023-10-31T14:05:17;0.20;;;0.20;;
28086;SDS011;15392;48.912;8.380;2023-10-31T14:08:04;0.20;;;0.20;;
28086;SDS011;15392;48.912;8.380;2023-10-31T14:10:54;0.20;;;0.20;;
28086;SDS011;15392;48.912;8.380;2023-10-31T14:13:42;0.20;;;0.20;;
28086;SDS011;15392;48.912;8.380;2023-10-31T14:16:30;0.10;;;0.10;;
28086;SDS011;15392;48.912;8.380;2023-10-31T14:19:16;0.17;;;0.10;;
28086;SDS011;15392;48.912;8.380;2023-10-31T14:22:03;0.15;;;0.15;;
28086;SDS011;15392;48.912;8.380;2023-10-31T14:24:49;0.10;;;0.10;;
28086;SDS011;15392;48.912;8.380;2023-10-31T14:27:35;0.28;;;0.10;;
28086;SDS011;15392;48.912;8.380;2023-10-31T14:30:21;0.22;;;0.17;;
28086;SDS011;15392;48.912;8.380;2023-10-31T14:33:07;0.10;;;0.10;;
28086;SDS011;15392;48.912;8.380;2023-10-31T14:35:53;0.17;;;0.10;;
28086;SDS011;15392;48.912;8.380;2023-10-31T14:38:40;0.10;;;0.10;;
28086;SDS011;15392;48.912;8.380;2023-10-31T14:41:26;0.15;;;0.10;;
28086;SDS011;15392;48.912;8.380;2023-10-31T14:44:12;0.10;;;0.08;;
28086;SDS011;15392;48.912;8.380;2023-10-31T14:46:58;0.20;;;0.20;;
28086;SDS011;15392;48.912;8.380;2023-10-31T14:49:45;0.10;;;0.10;;
28086;SDS011;15392;48.912;8.380;2023-10-31T14:52:31;0.28;;;0.28;;
28086;SDS011;15392;48.912;8.380;2023-10-31T14:55:17;1.25;;;0.20;;
28086;SDS011;15392;48.912;8.380;2023-10-31T14:58:02;0.30;;;0.30;;
28086;SDS011;15392;48.912;8.380;2023-10-31T15:00:49;0.20;;;0.20;;
28086;SDS011;15392;48.912;8.380;2023-10-31T15:03:36;0.28;;;0.28;;
28086;SDS011;15392;48.912;8.380;2023-10-31T15:06:22;0.25;;;0.25;;
28086;SDS011;15392;48.912;8.380;2023-10-31T15:09:08;0.28;;;0.28;;
28086;SDS011;15392;48.912;8.380;2023-10-31T15:11:54;0.40;;;0.40;;
28086;SDS011;15392;48.912;8.380;2023-10-31T15:14:40;0.17;;;0.17;;
28086;SDS011;15392;48.912;8.380;2023-10-31T15:17:26;0.20;;;0.20;;
28086;SDS011;15392;48.912;8.380;2023-10-31T15:20:12;0.22;;;0.22;;
28086;SDS011;15392;48.912;8.380;2023-10-31T15:22:58;0.30;;;0.30;;
28086;SDS011;15392;48.912;8.380;2023-10-31T15:25:45;0.30;;;0.30;;
28086;SDS011;15392;48.912;8.380;2023-10-31T15:28:31;0.22;;;0.22;;
28086;SDS011;15392;48.912;8.380;2023-10-31T15:31:17;0.20;;;0.20;;
28086;SDS011;15392;48.912;8.380;2023-10-31T15:34:03;0.30;;;0.30;;
28086;SDS011;15392;48.912;8.380;2023-10-31T15:36:49;0.30;;;0.30;;
28086;SDS011;15392;48.912;8.380;2023-10-31T15:39:35;0.20;;;0.20;;
28086;SDS011;15392;48.912;8.380;2023-10-31T15:42:21;0.30;;;0.30;;
28086;SDS011;15392;48.912;8.380;2023-10-31T15:45:07;0.30;;;0.30;;
28086;SDS011;15392;48.912;8.380;2023-10-31T15:47:54;0.30;;;0.20;;
28086;SDS011;15392;48.912;8.380;2023-10-31T15:50:40;0.20;;;0.20;;
28086;SDS011;15392;48.912;8.380;2023-10-31T15:53:26;0.10;;;0.10;;
28086;SDS011;15392;48.912;8.380;2023-10-31T15:56:13;0.10;;;0.10;;
28086;SDS011;15392;48.912;8.380;2023-10-31T15:58:59;0.22;;;0.10;;
28086;SDS011;15392;48.912;8.380;2023-10-31T16:01:47;0.10;;;0.10;;
28086;SDS011;15392;48.912;8.380;2023-10-31T16:04:33;0.20;;;0.20;;
28086;SDS011;15392;48.912;8.380;2023-10-31T16:07:19;0.20;;;0.20;;
28086;SDS011;15392;48.912;8.380;2023-10-31T16:10:06;0.25;;;0.25;;
28086;SDS011;15392;48.912;8.380;2023-10-31T16:12:53;0.28;;;0.28;;
28086;SDS011;15392;48.912;8.380;2023-10-31T16:15:40;0.32;;;0.32;;
28086;SDS011;15392;48.912;8.380;2023-10-31T16:18:26;0.22;;;0.22;;
28086;SDS011;15392;48.912;8.380;2023-10-31T16:21:19;0.22;;;0.22;;
28086;SDS011;15392;48.912;8.380;2023-10-31T16:24:06;0.30;;;0.30;;
28086;SDS011;15392;48.912;8.380;2023-10-31T16:26:52;0.30;;;0.30;;
28086;SDS011;15392;48.912;8.380;2023-10-31T16:29:38;0.30;;;0.30;;
28086;SDS011;15392;48.912;8.380;2023-10-31T16:32:24;0.40;;;0.40;;
28086;SDS011;15392;48.912;8.380;2023-10-31T16:35:10;0.60;;;0.60;;
28086;SDS011;15392;48.912;8.380;2023-10-31T16:37:56;0.82;;;0.82;;
28086;SDS011;15392;48.912;8.380;2023-10-31T16:40:42;0.70;;;0.70;;
28086;SDS011;15392;48.912;8.380;2023-10-31T16:43:28;0.50;;;0.50;;
28086;SDS011;15392;48.912;8.380;2023-10-31T16:46:15;0.30;;;0.30;;
28086;SDS011;15392;48.912;8.380;2023-10-31T16:49:01;0.30;;;0.30;;
28086;SDS011;15392;48.912;8.380;2023-10-31T16:51:47;0.22;;;0.22;;
28086;SDS011;15392;48.912;8.380;2023-10-31T16:54:33;0.28;;;0.28;;